sensor_id;sensor_type;location;lat;lon;timestamp;P1;durP1;ratioP1;P2;durP2;ratioP2
14945;SDS011;7567;50.916;6.900;2022-07-29T00:00:53;4.13;;;1.88;;
14945;SDS011;7567;50.916;6.900;2022-07-29T00:03:19;1.88;;;1.58;;
14945;SDS011;7567;50.916;6.900;2022-07-29T00:05:45;4.30;;;1.60;;
14945;SDS011;7567;50.916;6.900;2022-07-29T00:08:11;5.47;;;1.95;;
14945;SDS011;7567;50.916;6.900;2022-07-29T00:10:38;2.80;;;1.50;;
14945;SDS011;7567;50.916;6.900;2022-07-29T00:13:04;3.88;;;1.90;;
14945;SDS011;7567;50.916;6.900;2022-07-29T00:15:30;3.35;;;2.00;;
14945;SDS011;7567;50.916;6.900;2022-07-29T00:17:56;4.68;;;1.90;;
14945;SDS011;7567;50.916;6.900;2022-07-29T00:20:22;2.60;;;1.42;;
14945;SDS011;7567;50.916;6.900;2022-07-29T00:22:48;4.20;;;1.75;;
14945;SDS011;7567;50.916;6.900;2022-07-29T00:25:14;2.45;;;1.55;;
14945;SDS011;7567;50.916;6.900;2022-07-29T00:27:40;3.72;;;1.88;;
14945;SDS011;7567;50.916;6.900;2022-07-29T00:30:06;6.53;;;2.10;;
14945;SDS011;7567;50.916;6.900;2022-07-29T00:32:32;3.40;;;1.83;;
14945;SDS011;7567;50.916;6.900;2022-07-29T00:34:58;3.90;;;1.80;;
14945;SDS011;7567;50.916;6.900;2022-07-29T00:37:43;3.97;;;1.92;;
14945;SDS011;7567;50.916;6.900;2022-07-29T00:40:09;3.28;;;1.90;;
14945;SDS011;7567;50.916;6.900;2022-07-29T00:42:45;5.05;;;1.88;;
14945;SDS011;7567;50.916;6.900;2022-07-29T00:45:13;4.28;;;1.75;;
14945;SDS011;7567;50.916;6.900;2022-07-29T00:47:39;2.95;;;1.90;;
14945;SDS011;7567;50.916;6.900;2022-07-29T00:50:06;3.88;;;1.70;;
14945;SDS011;7567;50.916;6.900;2022-07-29T00:52:35;2.58;;;1.73;;
14945;SDS011;7567;50.916;6.900;2022-07-29T00:55:03;3.95;;;2.10;;
14945;SDS011;7567;50.916;6.900;2022-07-29T00:57:31;3.65;;;1.80;;
14945;SDS011;7567;50.916;6.900;2022-07-29T00:59:58;4.07;;;1.90;;
14945;SDS011;7567;50.916;6.900;2022-07-29T01:02:24;4.00;;;1.60;;
14945;SDS011;7567;50.916;6.900;2022-07-29T01:04:50;5.78;;;2.10;;
14945;SDS011;7567;50.916;6.900;2022-07-29T01:07:17;2.90;;;1.75;;
14945;SDS011;7567;50.916;6.900;2022-07-29T01:09:44;3.92;;;1.98;;
14945;SDS011;7567;50.916;6.900;2022-07-29T01:12:22;5.88;;;1.90;;
14945;SDS011;7567;50.916;6.900;2022-07-29T01:14:50;5.03;;;1.98;;
14945;SDS011;7567;50.916;6.900;2022-07-29T01:20:10;4.10;;;1.92;;
14945;SDS011;7567;50.916;6.900;2022-07-29T01:25:30;1.92;;;1.73;;
14945;SDS011;7567;50.916;6.900;2022-07-29T01:28:08;4.60;;;2.20;;
14945;SDS011;7567;50.916;6.900;2022-07-29T01:30:45;3.80;;;1.73;;
14945;SDS011;7567;50.916;6.900;2022-07-29T01:33:16;2.85;;;2.00;;
14945;SDS011;7567;50.916;6.900;2022-07-29T01:36:05;4.65;;;2.20;;
14945;SDS011;7567;50.916;6.900;2022-07-29T01:38:36;2.10;;;1.77;;
14945;SDS011;7567;50.916;6.900;2022-07-29T01:41:08;4.25;;;1.85;;
14945;SDS011;7567;50.916;6.900;2022-07-29T01:43:40;5.70;;;2.13;;
14945;SDS011;7567;50.916;6.900;2022-07-29T01:46:27;4.35;;;2.25;;
14945;SDS011;7567;50.916;6.900;2022-07-29T01:49:10;4.07;;;2.30;;
14945;SDS011;7567;50.916;6.900;2022-07-29T01:51:42;4.80;;;1.63;;
14945;SDS011;7567;50.916;6.900;2022-07-29T01:54:14;4.00;;;1.90;;
14945;SDS011;7567;50.916;6.900;2022-07-29T01:57:00;4.40;;;1.88;;
14945;SDS011;7567;50.916;6.900;2022-07-29T01:59:29;3.03;;;1.52;;
14945;SDS011;7567;50.916;6.900;2022-07-29T02:01:57;5.88;;;2.25;;
14945;SDS011;7567;50.916;6.900;2022-07-29T02:04:24;2.20;;;1.67;;
14945;SDS011;7567;50.916;6.900;2022-07-29T02:06:52;4.00;;;1.83;;
14945;SDS011;7567;50.916;6.900;2022-07-29T02:09:22;3.95;;;2.08;;
14945;SDS011;7567;50.916;6.900;2022-07-29T02:11:51;2.88;;;2.00;;
14945;SDS011;7567;50.916;6.900;2022-07-29T02:14:20;3.90;;;2.03;;
14945;SDS011;7567;50.916;6.900;2022-07-29T02:16:48;3.97;;;2.15;;
14945;SDS011;7567;50.916;6.900;2022-07-29T02:19:19;2.97;;;2.00;;
14945;SDS011;7567;50.916;6.900;2022-07-29T02:21:48;5.43;;;2.45;;
14945;SDS011;7567;50.916;6.900;2022-07-29T02:24:17;4.70;;;2.17;;
14945;SDS011;7567;50.916;6.900;2022-07-29T02:26:44;3.58;;;1.90;;
14945;SDS011;7567;50.916;6.900;2022-07-29T02:29:11;4.97;;;2.05;;
14945;SDS011;7567;50.916;6.900;2022-07-29T02:31:40;4.20;;;1.67;;
14945;SDS011;7567;50.916;6.900;2022-07-29T02:34:09;4.38;;;2.00;;
14945;SDS011;7567;50.916;6.900;2022-07-29T02:36:36;4.43;;;2.10;;
14945;SDS011;7567;50.916;6.900;2022-07-29T02:39:04;2.65;;;1.85;;
14945;SDS011;7567;50.916;6.900;2022-07-29T02:41:54;3.55;;;2.20;;
14945;SDS011;7567;50.916;6.900;2022-07-29T02:44:27;6.70;;;2.10;;
14945;SDS011;7567;50.916;6.900;2022-07-29T02:53:07;2.28;;;2.00;;
14945;SDS011;7567;50.916;6.900;2022-07-29T02:55:46;3.08;;;1.90;;
14945;SDS011;7567;50.916;6.900;2022-07-29T02:58:21;5.15;;;2.35;;
14945;SDS011;7567;50.916;6.900;2022-07-29T03:01:02;6.45;;;2.65;;
14945;SDS011;7567;50.916;6.900;2022-07-29T03:03:34;2.83;;;2.10;;
14945;SDS011;7567;50.916;6.900;2022-07-29T03:06:02;3.92;;;2.40;;
14945;SDS011;7567;50.916;6.900;2022-07-29T03:08:30;5.75;;;2.38;;
14945;SDS011;7567;50.916;6.900;2022-07-29T03:10:57;4.78;;;2.30;;
14945;SDS011;7567;50.916;6.900;2022-07-29T03:13:25;3.25;;;1.90;;
14945;SDS011;7567;50.916;6.900;2022-07-29T03:15:51;3.60;;;2.05;;
14945;SDS011;7567;50.916;6.900;2022-07-29T03:18:18;4.85;;;2.53;;
14945;SDS011;7567;50.916;6.900;2022-07-29T03:20:45;3.63;;;2.28;;
14945;SDS011;7567;50.916;6.900;2022-07-29T03:23:11;5.45;;;1.90;;
14945;SDS011;7567;50.916;6.900;2022-07-29T03:25:39;6.07;;;2.15;;
14945;SDS011;7567;50.916;6.900;2022-07-29T03:28:05;6.13;;;2.17;;
14945;SDS011;7567;50.916;6.900;2022-07-29T03:30:31;10.85;;;2.10;;
14945;SDS011;7567;50.916;6.900;2022-07-29T03:32:57;5.63;;;2.03;;
14945;SDS011;7567;50.916;6.900;2022-07-29T03:35:24;6.20;;;1.88;;
14945;SDS011;7567;50.916;6.900;2022-07-29T03:37:50;4.70;;;2.40;;
14945;SDS011;7567;50.916;6.900;2022-07-29T03:40:17;9.55;;;2.28;;
14945;SDS011;7567;50.916;6.900;2022-07-29T03:42:48;8.48;;;2.72;;
14945;SDS011;7567;50.916;6.900;2022-07-29T03:45:17;7.18;;;2.00;;
14945;SDS011;7567;50.916;6.900;2022-07-29T03:47:51;5.35;;;2.35;;
14945;SDS011;7567;50.916;6.900;2022-07-29T03:50:22;3.13;;;1.98;;
14945;SDS011;7567;50.916;6.900;2022-07-29T03:52:48;6.13;;;1.90;;
14945;SDS011;7567;50.916;6.900;2022-07-29T03:55:14;6.50;;;2.25;;
14945;SDS011;7567;50.916;6.900;2022-07-29T03:57:41;14.15;;;2.60;;
14945;SDS011;7567;50.916;6.900;2022-07-29T04:00:08;8.38;;;1.90;;
14945;SDS011;7567;50.916;6.900;2022-07-29T04:02:35;7.13;;;2.20;;
14945;SDS011;7567;50.916;6.900;2022-07-29T04:05:03;5.35;;;2.15;;
14945;SDS011;7567;50.916;6.900;2022-07-29T04:07:29;7.18;;;2.63;;
14945;SDS011;7567;50.916;6.900;2022-07-29T04:09:55;4.32;;;2.35;;
14945;SDS011;7567;50.916;6.900;2022-07-29T04:12:21;3.42;;;1.95;;
14945;SDS011;7567;50.916;6.900;2022-07-29T04:14:47;3.90;;;1.90;;
14945;SDS011;7567;50.916;6.900;2022-07-29T04:17:13;6.93;;;2.60;;
14945;SDS011;7567;50.916;6.900;2022-07-29T04:19:39;4.15;;;2.35;;
14945;SDS011;7567;50.916;6.900;2022-07-29T04:22:05;6.53;;;2.60;;
14945;SDS011;7567;50.916;6.900;2022-07-29T04:24:31;9.05;;;2.55;;
14945;SDS011;7567;50.916;6.900;2022-07-29T04:26:57;6.32;;;2.40;;
14945;SDS011;7567;50.916;6.900;2022-07-29T04:29:23;6.55;;;2.80;;
14945;SDS011;7567;50.916;6.900;2022-07-29T04:31:49;5.85;;;2.00;;
14945;SDS011;7567;50.916;6.900;2022-07-29T04:34:15;7.07;;;2.75;;
14945;SDS011;7567;50.916;6.900;2022-07-29T04:36:41;6.53;;;2.50;;
14945;SDS011;7567;50.916;6.900;2022-07-29T04:39:07;7.20;;;2.17;;
14945;SDS011;7567;50.916;6.900;2022-07-29T04:41:33;5.50;;;2.63;;
14945;SDS011;7567;50.916;6.900;2022-07-29T04:43:59;7.07;;;2.20;;
14945;SDS011;7567;50.916;6.900;2022-07-29T04:46:30;7.65;;;2.17;;
14945;SDS011;7567;50.916;6.900;2022-07-29T04:48:56;6.10;;;2.50;;
14945;SDS011;7567;50.916;6.900;2022-07-29T04:51:22;6.43;;;2.47;;
14945;SDS011;7567;50.916;6.900;2022-07-29T04:53:48;6.63;;;2.45;;
14945;SDS011;7567;50.916;6.900;2022-07-29T04:56:14;8.25;;;2.53;;
14945;SDS011;7567;50.916;6.900;2022-07-29T04:58:40;5.45;;;2.55;;
14945;SDS011;7567;50.916;6.900;2022-07-29T05:01:06;5.13;;;2.63;;
14945;SDS011;7567;50.916;6.900;2022-07-29T05:03:32;6.25;;;2.72;;
14945;SDS011;7567;50.916;6.900;2022-07-29T05:05:58;4.78;;;2.55;;
14945;SDS011;7567;50.916;6.900;2022-07-29T05:08:24;9.13;;;3.10;;
14945;SDS011;7567;50.916;6.900;2022-07-29T05:10:50;6.85;;;2.30;;
14945;SDS011;7567;50.916;6.900;2022-07-29T05:13:16;6.50;;;2.63;;
14945;SDS011;7567;50.916;6.900;2022-07-29T05:15:41;9.75;;;2.42;;
14945;SDS011;7567;50.916;6.900;2022-07-29T05:18:07;9.07;;;2.50;;
14945;SDS011;7567;50.916;6.900;2022-07-29T05:20:34;8.88;;;2.55;;
14945;SDS011;7567;50.916;6.900;2022-07-29T05:23:00;6.47;;;2.50;;
14945;SDS011;7567;50.916;6.900;2022-07-29T05:25:28;4.47;;;2.30;;
14945;SDS011;7567;50.916;6.900;2022-07-29T05:27:54;5.72;;;2.58;;
14945;SDS011;7567;50.916;6.900;2022-07-29T05:30:21;7.30;;;2.40;;
14945;SDS011;7567;50.916;6.900;2022-07-29T05:32:47;7.30;;;2.50;;
14945;SDS011;7567;50.916;6.900;2022-07-29T05:35:13;9.32;;;2.40;;
14945;SDS011;7567;50.916;6.900;2022-07-29T05:37:40;6.00;;;2.85;;
14945;SDS011;7567;50.916;6.900;2022-07-29T05:40:07;6.35;;;2.20;;
14945;SDS011;7567;50.916;6.900;2022-07-29T05:42:33;5.65;;;2.38;;
14945;SDS011;7567;50.916;6.900;2022-07-29T05:45:00;8.60;;;2.60;;
14945;SDS011;7567;50.916;6.900;2022-07-29T05:47:26;7.57;;;2.90;;
14945;SDS011;7567;50.916;6.900;2022-07-29T05:49:52;5.15;;;2.58;;
14945;SDS011;7567;50.916;6.900;2022-07-29T05:52:19;7.88;;;3.13;;
14945;SDS011;7567;50.916;6.900;2022-07-29T05:54:45;5.40;;;2.60;;
14945;SDS011;7567;50.916;6.900;2022-07-29T05:57:30;5.18;;;2.25;;
14945;SDS011;7567;50.916;6.900;2022-07-29T05:59:56;8.15;;;2.60;;
14945;SDS011;7567;50.916;6.900;2022-07-29T06:02:23;8.00;;;2.75;;
14945;SDS011;7567;50.916;6.900;2022-07-29T06:04:48;6.13;;;2.78;;
14945;SDS011;7567;50.916;6.900;2022-07-29T06:07:15;11.57;;;3.40;;
14945;SDS011;7567;50.916;6.900;2022-07-29T06:09:41;7.40;;;2.47;;
14945;SDS011;7567;50.916;6.900;2022-07-29T06:12:07;5.88;;;2.55;;
14945;SDS011;7567;50.916;6.900;2022-07-29T06:14:34;7.57;;;2.53;;
14945;SDS011;7567;50.916;6.900;2022-07-29T06:17:00;8.57;;;2.90;;
14945;SDS011;7567;50.916;6.900;2022-07-29T06:19:27;5.43;;;2.22;;
14945;SDS011;7567;50.916;6.900;2022-07-29T06:21:53;5.28;;;2.47;;
14945;SDS011;7567;50.916;6.900;2022-07-29T06:24:18;6.53;;;2.85;;
14945;SDS011;7567;50.916;6.900;2022-07-29T06:26:44;7.50;;;3.30;;
14945;SDS011;7567;50.916;6.900;2022-07-29T06:29:10;5.38;;;2.80;;
14945;SDS011;7567;50.916;6.900;2022-07-29T06:31:37;6.65;;;2.95;;
14945;SDS011;7567;50.916;6.900;2022-07-29T06:34:03;7.72;;;2.67;;
14945;SDS011;7567;50.916;6.900;2022-07-29T06:36:29;7.00;;;2.88;;
14945;SDS011;7567;50.916;6.900;2022-07-29T06:38:55;9.45;;;2.70;;
14945;SDS011;7567;50.916;6.900;2022-07-29T06:41:22;6.68;;;2.70;;
14945;SDS011;7567;50.916;6.900;2022-07-29T06:43:48;5.40;;;2.78;;
14945;SDS011;7567;50.916;6.900;2022-07-29T06:46:16;4.93;;;2.47;;
14945;SDS011;7567;50.916;6.900;2022-07-29T06:48:43;6.15;;;2.97;;
14945;SDS011;7567;50.916;6.900;2022-07-29T06:51:10;7.15;;;2.80;;
14945;SDS011;7567;50.916;6.900;2022-07-29T06:53:36;4.93;;;2.60;;
14945;SDS011;7567;50.916;6.900;2022-07-29T06:56:04;8.07;;;3.00;;
14945;SDS011;7567;50.916;6.900;2022-07-29T06:58:33;9.20;;;3.30;;
14945;SDS011;7567;50.916;6.900;2022-07-29T07:01:04;9.88;;;3.30;;
14945;SDS011;7567;50.916;6.900;2022-07-29T07:03:31;10.13;;;3.30;;
14945;SDS011;7567;50.916;6.900;2022-07-29T07:05:57;14.00;;;4.70;;
14945;SDS011;7567;50.916;6.900;2022-07-29T07:08:23;10.02;;;3.30;;
14945;SDS011;7567;50.916;6.900;2022-07-29T07:10:50;10.27;;;3.10;;
14945;SDS011;7567;50.916;6.900;2022-07-29T07:13:19;9.20;;;3.55;;
14945;SDS011;7567;50.916;6.900;2022-07-29T07:15:45;7.75;;;3.47;;
14945;SDS011;7567;50.916;6.900;2022-07-29T07:18:13;7.78;;;3.33;;
14945;SDS011;7567;50.916;6.900;2022-07-29T07:20:40;10.73;;;3.83;;
14945;SDS011;7567;50.916;6.900;2022-07-29T07:23:07;11.77;;;3.35;;
14945;SDS011;7567;50.916;6.900;2022-07-29T07:25:33;11.18;;;3.55;;
14945;SDS011;7567;50.916;6.900;2022-07-29T07:27:59;6.55;;;3.58;;
14945;SDS011;7567;50.916;6.900;2022-07-29T07:30:26;8.82;;;3.45;;
14945;SDS011;7567;50.916;6.900;2022-07-29T07:32:52;8.15;;;3.72;;
14945;SDS011;7567;50.916;6.900;2022-07-29T07:35:19;5.57;;;3.42;;
14945;SDS011;7567;50.916;6.900;2022-07-29T07:37:46;10.45;;;4.18;;
14945;SDS011;7567;50.916;6.900;2022-07-29T07:40:12;7.20;;;3.42;;
14945;SDS011;7567;50.916;6.900;2022-07-29T07:42:40;7.55;;;3.60;;
14945;SDS011;7567;50.916;6.900;2022-07-29T07:45:06;10.07;;;3.83;;
14945;SDS011;7567;50.916;6.900;2022-07-29T07:47:35;12.48;;;3.95;;
14945;SDS011;7567;50.916;6.900;2022-07-29T07:50:02;8.13;;;3.80;;
14945;SDS011;7567;50.916;6.900;2022-07-29T07:52:29;10.85;;;3.50;;
14945;SDS011;7567;50.916;6.900;2022-07-29T07:54:55;8.30;;;3.80;;
14945;SDS011;7567;50.916;6.900;2022-07-29T07:57:21;5.22;;;3.72;;
14945;SDS011;7567;50.916;6.900;2022-07-29T07:59:47;11.65;;;4.35;;
14945;SDS011;7567;50.916;6.900;2022-07-29T08:02:13;6.93;;;3.58;;
14945;SDS011;7567;50.916;6.900;2022-07-29T08:04:39;6.97;;;3.63;;
14945;SDS011;7567;50.916;6.900;2022-07-29T08:07:06;13.48;;;4.63;;
14945;SDS011;7567;50.916;6.900;2022-07-29T08:09:34;9.70;;;4.25;;
14945;SDS011;7567;50.916;6.900;2022-07-29T08:12:01;7.10;;;3.83;;
14945;SDS011;7567;50.916;6.900;2022-07-29T08:14:30;8.52;;;4.30;;
14945;SDS011;7567;50.916;6.900;2022-07-29T08:16:57;7.25;;;3.33;;
14945;SDS011;7567;50.916;6.900;2022-07-29T08:19:23;7.30;;;3.90;;
14945;SDS011;7567;50.916;6.900;2022-07-29T08:21:52;8.20;;;3.80;;
14945;SDS011;7567;50.916;6.900;2022-07-29T08:24:19;9.07;;;4.22;;
14945;SDS011;7567;50.916;6.900;2022-07-29T08:27:04;8.50;;;3.53;;
14945;SDS011;7567;50.916;6.900;2022-07-29T08:29:30;5.63;;;4.50;;
14945;SDS011;7567;50.916;6.900;2022-07-29T08:31:56;11.70;;;7.60;;
14945;SDS011;7567;50.916;6.900;2022-07-29T08:34:22;11.05;;;8.20;;
14945;SDS011;7567;50.916;6.900;2022-07-29T08:36:48;10.82;;;8.05;;
14945;SDS011;7567;50.916;6.900;2022-07-29T08:39:14;16.63;;;9.13;;
14945;SDS011;7567;50.916;6.900;2022-07-29T08:41:40;13.70;;;8.38;;
14945;SDS011;7567;50.916;6.900;2022-07-29T08:44:06;15.05;;;8.98;;
14945;SDS011;7567;50.916;6.900;2022-07-29T08:46:36;11.65;;;7.00;;
14945;SDS011;7567;50.916;6.900;2022-07-29T08:49:06;11.48;;;6.78;;
14945;SDS011;7567;50.916;6.900;2022-07-29T08:51:33;10.55;;;5.82;;
14945;SDS011;7567;50.916;6.900;2022-07-29T08:54:01;8.45;;;5.70;;
14945;SDS011;7567;50.916;6.900;2022-07-29T08:56:28;9.27;;;5.13;;
14945;SDS011;7567;50.916;6.900;2022-07-29T08:58:55;9.68;;;4.90;;
14945;SDS011;7567;50.916;6.900;2022-07-29T09:01:25;5.45;;;4.50;;
14945;SDS011;7567;50.916;6.900;2022-07-29T09:03:55;9.32;;;4.30;;
14945;SDS011;7567;50.916;6.900;2022-07-29T09:06:23;4.13;;;3.65;;
14945;SDS011;7567;50.916;6.900;2022-07-29T09:08:53;5.35;;;3.70;;
14945;SDS011;7567;50.916;6.900;2022-07-29T09:11:23;8.18;;;4.47;;
14945;SDS011;7567;50.916;6.900;2022-07-29T09:13:50;7.80;;;4.55;;
14945;SDS011;7567;50.916;6.900;2022-07-29T09:16:16;9.70;;;4.45;;
14945;SDS011;7567;50.916;6.900;2022-07-29T09:18:44;6.50;;;3.95;;
14945;SDS011;7567;50.916;6.900;2022-07-29T09:21:12;8.20;;;4.72;;
14945;SDS011;7567;50.916;6.900;2022-07-29T09:24:05;9.38;;;3.80;;
14945;SDS011;7567;50.916;6.900;2022-07-29T09:26:34;13.32;;;5.00;;
14945;SDS011;7567;50.916;6.900;2022-07-29T09:29:35;8.68;;;4.35;;
14945;SDS011;7567;50.916;6.900;2022-07-29T09:31:54;5.05;;;4.22;;
14945;SDS011;7567;50.916;6.900;2022-07-29T09:34:22;18.67;;;4.47;;
14945;SDS011;7567;50.916;6.900;2022-07-29T09:36:57;9.07;;;4.45;;
14945;SDS011;7567;50.916;6.900;2022-07-29T09:39:27;8.52;;;3.72;;
14945;SDS011;7567;50.916;6.900;2022-07-29T09:41:58;8.25;;;3.55;;
14945;SDS011;7567;50.916;6.900;2022-07-29T09:44:28;10.48;;;4.13;;
14945;SDS011;7567;50.916;6.900;2022-07-29T09:47:18;9.77;;;3.50;;
14945;SDS011;7567;50.916;6.900;2022-07-29T09:49:54;5.32;;;3.05;;
14945;SDS011;7567;50.916;6.900;2022-07-29T09:52:25;6.05;;;3.92;;
14945;SDS011;7567;50.916;6.900;2022-07-29T09:54:52;8.63;;;3.42;;
14945;SDS011;7567;50.916;6.900;2022-07-29T09:57:25;9.00;;;3.28;;
14945;SDS011;7567;50.916;6.900;2022-07-29T10:00:05;7.68;;;3.08;;
14945;SDS011;7567;50.916;6.900;2022-07-29T10:02:44;6.65;;;3.33;;
14945;SDS011;7567;50.916;6.900;2022-07-29T10:05:18;6.88;;;3.03;;
14945;SDS011;7567;50.916;6.900;2022-07-29T10:07:55;4.78;;;2.78;;
14945;SDS011;7567;50.916;6.900;2022-07-29T10:10:28;5.57;;;3.30;;
14945;SDS011;7567;50.916;6.900;2022-07-29T10:12:57;6.55;;;3.10;;
14945;SDS011;7567;50.916;6.900;2022-07-29T10:15:31;5.05;;;2.80;;
14945;SDS011;7567;50.916;6.900;2022-07-29T10:18:02;6.55;;;3.28;;
14945;SDS011;7567;50.916;6.900;2022-07-29T10:20:29;9.27;;;2.95;;
14945;SDS011;7567;50.916;6.900;2022-07-29T10:22:56;5.70;;;2.78;;
14945;SDS011;7567;50.916;6.900;2022-07-29T10:25:23;6.53;;;3.00;;
14945;SDS011;7567;50.916;6.900;2022-07-29T10:27:50;7.90;;;2.97;;
14945;SDS011;7567;50.916;6.900;2022-07-29T10:30:17;5.68;;;3.45;;
14945;SDS011;7567;50.916;6.900;2022-07-29T10:33:08;9.02;;;3.22;;
14945;SDS011;7567;50.916;6.900;2022-07-29T10:35:57;4.53;;;3.05;;
14945;SDS011;7567;50.916;6.900;2022-07-29T10:38:48;6.85;;;3.60;;
14945;SDS011;7567;50.916;6.900;2022-07-29T10:44:31;4.10;;;3.33;;
14945;SDS011;7567;50.916;6.900;2022-07-29T10:50:05;6.68;;;3.40;;
14945;SDS011;7567;50.916;6.900;2022-07-29T10:58:20;7.40;;;3.10;;
14945;SDS011;7567;50.916;6.900;2022-07-29T11:00:51;6.47;;;3.03;;
14945;SDS011;7567;50.916;6.900;2022-07-29T11:06:11;4.95;;;2.95;;
14945;SDS011;7567;50.916;6.900;2022-07-29T11:08:40;9.10;;;2.50;;
14945;SDS011;7567;50.916;6.900;2022-07-29T11:13:54;4.00;;;2.80;;
14945;SDS011;7567;50.916;6.900;2022-07-29T11:16:22;7.07;;;2.75;;
14945;SDS011;7567;50.916;6.900;2022-07-29T11:21:44;3.75;;;2.65;;
14945;SDS011;7567;50.916;6.900;2022-07-29T11:24:22;6.10;;;2.30;;
14945;SDS011;7567;50.916;6.900;2022-07-29T11:30:08;3.67;;;2.25;;
14945;SDS011;7567;50.916;6.900;2022-07-29T11:32:42;6.82;;;2.67;;
14945;SDS011;7567;50.916;6.900;2022-07-29T11:35:23;9.20;;;3.08;;
14945;SDS011;7567;50.916;6.900;2022-07-29T11:43:52;8.10;;;3.75;;
14945;SDS011;7567;50.916;6.900;2022-07-29T11:49:22;5.25;;;2.92;;
14945;SDS011;7567;50.916;6.900;2022-07-29T11:51:53;3.53;;;2.78;;
14945;SDS011;7567;50.916;6.900;2022-07-29T11:54:23;7.00;;;2.85;;
14945;SDS011;7567;50.916;6.900;2022-07-29T11:56:58;4.40;;;2.67;;
14945;SDS011;7567;50.916;6.900;2022-07-29T11:59:25;6.50;;;2.83;;
14945;SDS011;7567;50.916;6.900;2022-07-29T12:02:05;10.05;;;3.03;;
14945;SDS011;7567;50.916;6.900;2022-07-29T12:04:33;11.48;;;2.78;;
14945;SDS011;7567;50.916;6.900;2022-07-29T12:07:13;4.50;;;2.40;;
14945;SDS011;7567;50.916;6.900;2022-07-29T12:09:39;5.45;;;2.33;;
14945;SDS011;7567;50.916;6.900;2022-07-29T12:12:15;8.95;;;2.88;;
14945;SDS011;7567;50.916;6.900;2022-07-29T12:14:42;7.95;;;2.65;;
14945;SDS011;7567;50.916;6.900;2022-07-29T12:17:30;4.88;;;2.28;;
14945;SDS011;7567;50.916;6.900;2022-07-29T12:19:58;5.82;;;2.38;;
14945;SDS011;7567;50.916;6.900;2022-07-29T12:22:30;6.57;;;2.67;;
14945;SDS011;7567;50.916;6.900;2022-07-29T12:25:05;3.10;;;2.10;;
14945;SDS011;7567;50.916;6.900;2022-07-29T12:27:33;4.95;;;2.53;;
14945;SDS011;7567;50.916;6.900;2022-07-29T12:29:59;8.63;;;2.38;;
14945;SDS011;7567;50.916;6.900;2022-07-29T12:32:34;6.03;;;1.98;;
14945;SDS011;7567;50.916;6.900;2022-07-29T12:35:05;4.57;;;2.42;;
14945;SDS011;7567;50.916;6.900;2022-07-29T12:37:34;5.35;;;2.13;;
14945;SDS011;7567;50.916;6.900;2022-07-29T12:40:05;4.63;;;2.15;;
14945;SDS011;7567;50.916;6.900;2022-07-29T12:42:36;9.52;;;2.65;;
14945;SDS011;7567;50.916;6.900;2022-07-29T12:45:13;7.05;;;2.25;;
14945;SDS011;7567;50.916;6.900;2022-07-29T12:47:50;4.38;;;2.50;;
14945;SDS011;7567;50.916;6.900;2022-07-29T12:50:17;8.30;;;2.33;;
14945;SDS011;7567;50.916;6.900;2022-07-29T12:52:43;10.35;;;2.70;;
14945;SDS011;7567;50.916;6.900;2022-07-29T12:55:11;6.72;;;2.10;;
14945;SDS011;7567;50.916;6.900;2022-07-29T13:00:13;7.38;;;2.30;;
14945;SDS011;7567;50.916;6.900;2022-07-29T13:02:41;3.10;;;2.20;;
14945;SDS011;7567;50.916;6.900;2022-07-29T13:05:09;4.88;;;2.25;;
14945;SDS011;7567;50.916;6.900;2022-07-29T13:07:36;7.47;;;2.17;;
14945;SDS011;7567;50.916;6.900;2022-07-29T13:10:15;6.45;;;2.10;;
14945;SDS011;7567;50.916;6.900;2022-07-29T13:15:31;4.63;;;2.00;;
14945;SDS011;7567;50.916;6.900;2022-07-29T13:17:58;3.47;;;1.70;;
14945;SDS011;7567;50.916;6.900;2022-07-29T13:20:25;2.30;;;1.75;;
14945;SDS011;7567;50.916;6.900;2022-07-29T13:22:55;4.93;;;1.92;;
14945;SDS011;7567;50.916;6.900;2022-07-29T13:25:23;3.10;;;2.08;;
14945;SDS011;7567;50.916;6.900;2022-07-29T13:27:51;8.38;;;2.58;;
14945;SDS011;7567;50.916;6.900;2022-07-29T13:30:19;13.85;;;2.70;;
14945;SDS011;7567;50.916;6.900;2022-07-29T13:32:46;6.55;;;2.42;;
14945;SDS011;7567;50.916;6.900;2022-07-29T13:35:13;5.82;;;2.30;;
14945;SDS011;7567;50.916;6.900;2022-07-29T13:37:39;7.63;;;3.30;;
14945;SDS011;7567;50.916;6.900;2022-07-29T13:40:06;4.88;;;2.65;;
14945;SDS011;7567;50.916;6.900;2022-07-29T13:42:33;5.38;;;2.92;;
14945;SDS011;7567;50.916;6.900;2022-07-29T13:45:00;9.25;;;2.97;;
14945;SDS011;7567;50.916;6.900;2022-07-29T13:47:27;8.85;;;4.07;;
14945;SDS011;7567;50.916;6.900;2022-07-29T13:49:54;9.43;;;3.47;;
14945;SDS011;7567;50.916;6.900;2022-07-29T13:52:20;7.35;;;2.85;;
14945;SDS011;7567;50.916;6.900;2022-07-29T13:54:46;13.73;;;3.25;;
14945;SDS011;7567;50.916;6.900;2022-07-29T13:57:13;5.40;;;2.95;;
14945;SDS011;7567;50.916;6.900;2022-07-29T13:59:40;10.15;;;3.38;;
14945;SDS011;7567;50.916;6.900;2022-07-29T14:02:07;7.00;;;3.17;;
14945;SDS011;7567;50.916;6.900;2022-07-29T14:04:34;7.75;;;3.50;;
14945;SDS011;7567;50.916;6.900;2022-07-29T14:07:01;13.40;;;3.15;;
14945;SDS011;7567;50.916;6.900;2022-07-29T14:09:27;11.30;;;3.20;;
14945;SDS011;7567;50.916;6.900;2022-07-29T14:11:53;11.02;;;3.30;;
14945;SDS011;7567;50.916;6.900;2022-07-29T14:14:19;12.57;;;3.38;;
14945;SDS011;7567;50.916;6.900;2022-07-29T14:16:45;5.75;;;3.25;;
14945;SDS011;7567;50.916;6.900;2022-07-29T14:19:12;8.82;;;3.42;;
14945;SDS011;7567;50.916;6.900;2022-07-29T14:21:38;12.35;;;3.40;;
14945;SDS011;7567;50.916;6.900;2022-07-29T14:24:05;10.07;;;3.63;;
14945;SDS011;7567;50.916;6.900;2022-07-29T14:26:31;9.23;;;3.03;;
14945;SDS011;7567;50.916;6.900;2022-07-29T14:28:57;10.05;;;3.80;;
14945;SDS011;7567;50.916;6.900;2022-07-29T14:31:23;7.95;;;3.70;;
14945;SDS011;7567;50.916;6.900;2022-07-29T14:33:49;11.45;;;3.50;;
14945;SDS011;7567;50.916;6.900;2022-07-29T14:36:18;8.63;;;3.38;;
14945;SDS011;7567;50.916;6.900;2022-07-29T14:38:45;7.38;;;3.60;;
14945;SDS011;7567;50.916;6.900;2022-07-29T14:41:11;11.13;;;4.05;;
14945;SDS011;7567;50.916;6.900;2022-07-29T14:43:37;9.68;;;4.07;;
14945;SDS011;7567;50.916;6.900;2022-07-29T14:46:03;11.35;;;3.80;;
14945;SDS011;7567;50.916;6.900;2022-07-29T14:48:28;10.55;;;3.42;;
14945;SDS011;7567;50.916;6.900;2022-07-29T14:50:54;4.65;;;2.85;;
14945;SDS011;7567;50.916;6.900;2022-07-29T14:53:21;6.78;;;2.58;;
14945;SDS011;7567;50.916;6.900;2022-07-29T14:55:48;6.18;;;3.30;;
14945;SDS011;7567;50.916;6.900;2022-07-29T14:58:14;13.13;;;3.28;;
14945;SDS011;7567;50.916;6.900;2022-07-29T15:00:40;8.40;;;2.83;;
14945;SDS011;7567;50.916;6.900;2022-07-29T15:03:06;7.45;;;2.88;;
14945;SDS011;7567;50.916;6.900;2022-07-29T15:05:42;7.35;;;2.95;;
14945;SDS011;7567;50.916;6.900;2022-07-29T15:08:08;4.45;;;2.70;;
14945;SDS011;7567;50.916;6.900;2022-07-29T15:10:34;10.45;;;3.38;;
14945;SDS011;7567;50.916;6.900;2022-07-29T15:13:01;7.53;;;2.38;;
14945;SDS011;7567;50.916;6.900;2022-07-29T15:15:27;3.42;;;2.08;;
14945;SDS011;7567;50.916;6.900;2022-07-29T15:17:53;4.60;;;2.60;;
14945;SDS011;7567;50.916;6.900;2022-07-29T15:20:19;5.63;;;2.20;;
14945;SDS011;7567;50.916;6.900;2022-07-29T15:22:46;5.10;;;2.08;;
14945;SDS011;7567;50.916;6.900;2022-07-29T15:25:12;5.25;;;2.28;;
14945;SDS011;7567;50.916;6.900;2022-07-29T15:27:38;10.68;;;2.38;;
14945;SDS011;7567;50.916;6.900;2022-07-29T15:30:04;9.07;;;2.35;;
14945;SDS011;7567;50.916;6.900;2022-07-29T15:32:30;2.97;;;1.90;;
14945;SDS011;7567;50.916;6.900;2022-07-29T15:34:56;8.50;;;1.88;;
14945;SDS011;7567;50.916;6.900;2022-07-29T15:37:22;5.53;;;2.25;;
14945;SDS011;7567;50.916;6.900;2022-07-29T15:39:48;7.20;;;2.28;;
14945;SDS011;7567;50.916;6.900;2022-07-29T15:42:14;5.95;;;2.40;;
14945;SDS011;7567;50.916;6.900;2022-07-29T15:44:41;5.65;;;2.70;;
14945;SDS011;7567;50.916;6.900;2022-07-29T15:47:10;7.90;;;2.20;;
14945;SDS011;7567;50.916;6.900;2022-07-29T15:49:37;6.20;;;2.20;;
14945;SDS011;7567;50.916;6.900;2022-07-29T15:52:05;2.17;;;1.98;;
14945;SDS011;7567;50.916;6.900;2022-07-29T15:54:33;4.07;;;1.65;;
14945;SDS011;7567;50.916;6.900;2022-07-29T15:57:01;4.45;;;2.17;;
14945;SDS011;7567;50.916;6.900;2022-07-29T15:59:28;6.60;;;2.22;;